createdAt,value
2018-11-23T00:00:40.422Z,10.10
2018-11-23T00:03:17.072Z,11.70
2018-11-23T00:05:53.479Z,10.73
2018-11-23T00:08:29.983Z,9.47
2018-11-23T00:11:06.679Z,9.73
2018-11-23T00:13:42.887Z,7.83
2018-11-23T00:16:22.227Z,8.30
2018-11-23T00:18:58.673Z,8.33
2018-11-23T00:21:35.517Z,8.23
2018-11-23T00:24:11.955Z,8.40
2018-11-23T00:26:48.390Z,8.60
2018-11-23T00:29:25.519Z,7.47
2018-11-23T00:32:02.230Z,8.43
2018-11-23T00:34:38.722Z,7.93
2018-11-23T00:37:15.806Z,6.47
2018-11-23T00:39:51.894Z,6.87
2018-11-23T00:42:28.482Z,7.33
2018-11-23T00:45:06.952Z,7.03
2018-11-23T00:47:44.185Z,7.40
2018-11-23T00:50:22.998Z,7.97
2018-11-23T00:53:00.975Z,7.40
2018-11-23T00:55:37.863Z,8.93
2018-11-23T00:58:15.477Z,9.30
2018-11-23T01:00:51.891Z,8.63
2018-11-23T01:03:29.128Z,12.90
2018-11-23T01:06:05.583Z,10.50
2018-11-23T01:08:42.184Z,26.07
2018-11-23T01:11:21.859Z,21.20
2018-11-23T01:13:58.748Z,13.93
2018-11-23T01:16:38.540Z,9.27
2018-11-23T01:19:15.721Z,9.03
2018-11-23T01:21:52.616Z,7.57
2018-11-23T01:24:28.942Z,8.83
2018-11-23T01:27:05.237Z,9.27
2018-11-23T01:29:41.428Z,9.77
2018-11-23T01:32:18.731Z,10.30
2018-11-23T01:34:55.826Z,10.33
2018-11-23T01:37:32.099Z,11.90
2018-11-23T01:40:10.704Z,12.47
2018-11-23T01:42:47.513Z,11.63
2018-11-23T01:45:23.613Z,11.10
2018-11-23T01:48:00.363Z,10.07
2018-11-23T01:50:37.017Z,9.70
2018-11-23T01:53:13.303Z,8.23
2018-11-23T01:55:49.769Z,6.70
2018-11-23T01:58:29.482Z,8.90
2018-11-23T02:01:06.468Z,10.63
2018-11-23T02:03:42.901Z,8.80
2018-11-23T02:06:19.247Z,7.20
2018-11-23T02:08:55.469Z,8.23
2018-11-23T02:11:31.881Z,8.03
2018-11-23T02:15:32.665Z,6.60
2018-11-23T02:18:09.663Z,6.63
2018-11-23T02:20:46.036Z,6.63
2018-11-23T02:23:22.502Z,5.83
2018-11-23T02:25:59.034Z,5.63
2018-11-23T02:28:35.527Z,6.70
2018-11-23T02:31:11.781Z,6.10
2018-11-23T02:33:47.802Z,5.97
2018-11-23T02:36:24.139Z,6.47
2018-11-23T02:39:00.740Z,9.63
2018-11-23T02:41:38.286Z,7.43
2018-11-23T02:44:15.803Z,6.63
2018-11-23T02:46:56.507Z,6.87
2018-11-23T02:49:33.195Z,7.17
2018-11-23T02:52:09.452Z,6.50
2018-11-23T02:54:45.930Z,6.17
2018-11-23T02:57:22.304Z,6.43
2018-11-23T02:59:58.964Z,6.27
2018-11-23T03:02:35.902Z,6.80
2018-11-23T03:05:14.581Z,6.73
2018-11-23T03:07:51.718Z,6.97
2018-11-23T03:10:28.124Z,7.67
2018-11-23T03:13:06.662Z,7.07
2018-11-23T03:15:43.534Z,6.67
2018-11-23T03:18:19.999Z,6.50
2018-11-23T03:20:56.356Z,5.97
2018-11-23T03:23:34.417Z,6.50
2018-11-23T03:26:12.277Z,6.77
2018-11-23T03:28:48.634Z,9.00
2018-11-23T03:31:26.231Z,7.03
2018-11-23T03:34:02.486Z,6.33
2018-11-23T03:36:38.856Z,7.37
2018-11-23T03:39:16.099Z,7.57
2018-11-23T03:41:53.459Z,8.17
2018-11-23T03:44:29.750Z,6.93
2018-11-23T03:47:07.058Z,10.17
2018-11-23T03:49:43.182Z,8.17
2018-11-23T03:52:19.751Z,7.40
2018-11-23T03:54:55.863Z,8.47
2018-11-23T03:57:32.250Z,8.00
2018-11-23T04:00:17.370Z,7.97
2018-11-23T04:02:53.338Z,9.37
2018-11-23T04:05:29.706Z,9.63
2018-11-23T04:08:06.027Z,8.57
2018-11-23T04:10:42.349Z,8.17
2018-11-23T04:13:18.817Z,7.80
2018-11-23T04:15:55.038Z,32.33
2018-11-23T04:18:31.446Z,8.63
2018-11-23T04:21:07.805Z,10.33
2018-11-23T04:23:45.374Z,8.43
2018-11-23T04:26:24.826Z,9.63
2018-11-23T04:28:58.443Z,10.63
2018-11-23T04:31:34.752Z,12.37
2018-11-23T04:34:12.396Z,16.50
2018-11-23T04:36:48.786Z,14.00
2018-11-23T04:39:25.187Z,14.50
2018-11-23T04:42:01.484Z,18.50
2018-11-23T04:44:37.778Z,16.73
2018-11-23T04:47:14.239Z,23.17
2018-11-23T04:49:50.641Z,14.07
2018-11-23T04:52:27.602Z,10.30
2018-11-23T04:55:04.000Z,11.67
2018-11-23T04:57:40.467Z,17.10
2018-11-23T05:00:18.184Z,16.73
2018-11-23T05:02:54.581Z,14.30
2018-11-23T05:05:31.040Z,12.30
2018-11-23T05:08:07.278Z,12.90
2018-11-23T05:10:43.448Z,16.73
2018-11-23T05:13:19.749Z,30.63
2018-11-23T05:15:56.254Z,12.60
2018-11-23T05:18:32.772Z,12.43
2018-11-23T05:21:09.226Z,11.70
2018-11-23T05:23:45.549Z,14.47
2018-11-23T05:26:21.974Z,15.53
2018-11-23T05:28:58.239Z,9.80
2018-11-23T05:31:34.399Z,20.97
2018-11-23T05:34:10.670Z,14.50
2018-11-23T05:36:47.357Z,19.93
2018-11-23T05:39:23.695Z,17.33
2018-11-23T05:41:59.948Z,62.47
2018-11-23T05:44:36.195Z,43.03
2018-11-23T05:47:13.159Z,25.80
2018-11-23T05:49:49.641Z,26.67
2018-11-23T05:52:25.959Z,25.97
2018-11-23T05:55:02.732Z,34.40
2018-11-23T05:57:39.385Z,41.80
2018-11-23T06:00:19.772Z,37.20
2018-11-23T06:02:56.059Z,56.13
2018-11-23T06:05:32.339Z,20.93
2018-11-23T06:08:08.828Z,25.03
2018-11-23T06:10:44.959Z,26.07
2018-11-23T06:13:21.468Z,25.83
2018-11-23T06:15:58.766Z,39.33
2018-11-23T06:18:35.259Z,42.70
2018-11-23T06:21:11.782Z,56.27
2018-11-23T06:23:50.382Z,79.30
2018-11-23T06:26:27.874Z,53.00
2018-11-23T06:29:05.628Z,47.53
2018-11-23T06:31:47.905Z,43.53
2018-11-23T06:34:24.358Z,52.27
2018-11-23T06:37:00.423Z,79.27
2018-11-23T06:39:36.870Z,82.23
2018-11-23T06:42:13.194Z,87.57
2018-11-23T06:44:49.594Z,81.00
2018-11-23T06:47:25.806Z,70.50
2018-11-23T06:50:02.594Z,54.03
2018-11-23T06:52:45.857Z,45.33
2018-11-23T06:55:24.900Z,65.00
2018-11-23T06:58:01.206Z,71.97
2018-11-23T07:00:37.761Z,54.37
2018-11-23T07:03:13.944Z,66.73
2018-11-23T07:05:50.378Z,58.77
2018-11-23T07:08:26.690Z,63.73
2018-11-23T07:11:04.298Z,48.67
2018-11-23T07:13:40.595Z,40.47
2018-11-23T07:16:16.763Z,41.77
2018-11-23T07:18:53.090Z,44.63
2018-11-23T07:21:29.450Z,41.27
2018-11-23T07:24:06.236Z,36.97
2018-11-23T07:26:42.605Z,31.20
2018-11-23T07:29:20.390Z,33.10
2018-11-23T07:31:56.794Z,37.23
2018-11-23T07:34:33.458Z,39.63
2018-11-23T07:37:09.906Z,39.50
2018-11-23T07:39:57.343Z,32.97
2018-11-23T07:42:34.315Z,45.20
2018-11-23T07:45:10.871Z,43.80
2018-11-23T07:47:47.278Z,33.43
2018-11-23T07:50:23.578Z,26.83
2018-11-23T07:52:59.676Z,26.70
2018-11-23T07:55:36.169Z,34.43
2018-11-23T07:58:12.739Z,35.43
2018-11-23T08:00:49.086Z,38.57
2018-11-23T08:03:25.538Z,40.03
2018-11-23T08:06:02.131Z,32.47
2018-11-23T08:08:38.502Z,30.27
2018-11-23T08:11:14.810Z,35.27
2018-11-23T08:13:51.289Z,32.73
2018-11-23T08:16:27.691Z,29.33
2018-11-23T08:19:04.430Z,25.00
2018-11-23T08:21:40.931Z,25.17
2018-11-23T08:24:17.367Z,25.47
2018-11-23T08:26:53.705Z,34.67
2018-11-23T08:29:30.265Z,24.77
2018-11-23T08:32:06.747Z,21.47
2018-11-23T08:34:43.081Z,30.97
2018-11-23T08:37:19.428Z,27.87
2018-11-23T08:39:55.904Z,25.73
2018-11-23T08:42:32.091Z,23.60
2018-11-23T08:45:11.482Z,20.17
2018-11-23T08:47:47.630Z,19.70
2018-11-23T08:50:26.683Z,22.57
2018-11-23T08:53:02.801Z,22.03
2018-11-23T08:55:39.088Z,19.57
2018-11-23T08:58:15.632Z,19.77
2018-11-23T09:00:52.104Z,14.80
2018-11-23T09:03:28.451Z,12.53
2018-11-23T09:06:04.813Z,12.80
2018-11-23T09:08:41.066Z,14.03
2018-11-23T09:11:17.455Z,9.90
2018-11-23T09:13:53.754Z,8.43
2018-11-23T09:16:30.185Z,11.90
2018-11-23T09:19:06.832Z,15.33
2018-11-23T09:21:42.932Z,11.57
2018-11-23T09:24:19.391Z,7.43
2018-11-23T09:26:55.660Z,7.07
2018-11-23T09:29:32.496Z,6.87
2018-11-23T09:32:08.749Z,9.30
2018-11-23T09:34:45.080Z,9.97
2018-11-23T09:37:21.523Z,7.60
2018-11-23T09:39:57.828Z,9.87
2018-11-23T09:42:34.139Z,9.90
2018-11-23T09:45:14.183Z,10.53
2018-11-23T09:47:51.647Z,11.80
2018-11-23T09:50:28.328Z,8.47
2018-11-23T09:53:05.358Z,7.30
2018-11-23T09:55:41.604Z,5.63
2018-11-23T09:58:17.929Z,10.87
2018-11-23T10:00:54.974Z,11.17
2018-11-23T10:03:31.359Z,9.00
2018-11-23T10:06:07.924Z,8.83
2018-11-23T10:08:44.321Z,7.40
2018-11-23T10:11:20.671Z,6.33
2018-11-23T10:13:51.860Z,9.30
2018-11-23T10:16:23.253Z,12.07
2018-11-23T10:18:54.573Z,29.57
2018-11-23T10:21:26.614Z,5.87
2018-11-23T10:23:57.983Z,14.83
2018-11-23T10:26:29.402Z,11.73
2018-11-23T10:36:13.950Z,22.77
2018-11-23T10:38:45.323Z,13.97
2018-11-23T10:41:16.626Z,12.07
2018-11-23T10:43:47.876Z,9.70
2018-11-23T10:46:20.479Z,12.07
2018-11-23T10:48:51.751Z,11.70
2018-11-23T10:51:23.044Z,11.10
2018-11-23T10:53:55.383Z,10.93
2018-11-23T10:56:26.796Z,10.20
2018-11-23T10:58:58.309Z,10.20
2018-11-23T11:01:34.701Z,8.73
2018-11-23T11:04:11.372Z,8.03
2018-11-23T11:06:47.757Z,14.30
2018-11-23T11:09:19.044Z,9.77
2018-11-23T11:11:50.668Z,18.40
2018-11-23T11:14:21.902Z,17.60
2018-11-23T11:16:53.194Z,28.90
2018-11-23T11:19:24.520Z,10.23
2018-11-23T11:21:55.896Z,19.93
2018-11-23T11:24:27.121Z,15.47
2018-11-23T11:26:58.437Z,20.03
2018-11-23T11:29:29.993Z,16.17
2018-11-23T11:32:01.272Z,18.60
2018-11-23T11:34:32.571Z,25.47
2018-11-23T11:37:04.621Z,27.43
2018-11-23T11:39:35.922Z,10.00
2018-11-23T11:42:07.179Z,9.27
2018-11-23T11:44:38.369Z,8.57
2018-11-23T11:47:10.287Z,8.50
2018-11-23T11:49:41.595Z,8.20
2018-11-23T11:52:12.895Z,5.80
2018-11-23T11:54:44.156Z,6.03
2018-11-23T11:57:15.616Z,6.50
2018-11-23T11:59:47.845Z,12.73
2018-11-23T12:02:19.095Z,8.27
2018-11-23T12:04:50.339Z,10.57
2018-11-23T12:07:21.970Z,7.97
2018-11-23T12:09:53.266Z,39.90
2018-11-23T12:12:24.601Z,15.87
2018-11-23T12:14:55.789Z,51.73
2018-11-23T12:17:27.062Z,44.17
2018-11-23T12:19:58.352Z,84.40
2018-11-23T12:22:30.568Z,46.13
2018-11-23T12:25:01.809Z,13.57
2018-11-23T12:27:33.067Z,10.00
2018-11-23T12:30:04.748Z,6.27
2018-11-23T12:32:36.054Z,18.40
2018-11-23T12:35:09.165Z,12.77
2018-11-23T12:37:41.277Z,7.13
2018-11-23T12:40:14.082Z,42.30
2018-11-23T12:42:46.127Z,27.43
2018-11-23T12:45:18.801Z,10.57
2018-11-23T12:47:50.067Z,6.93
2018-11-23T12:50:22.745Z,3.77
2018-11-23T12:52:54.372Z,6.90
2018-11-23T12:55:25.658Z,5.30
2018-11-23T12:57:57.058Z,6.73
2018-11-23T13:00:29.209Z,7.27
2018-11-23T13:03:02.853Z,15.20
2018-11-23T13:05:35.400Z,15.43
2018-11-23T13:08:07.654Z,13.97
2018-11-23T13:10:39.000Z,16.60
2018-11-23T13:13:10.430Z,24.00
2018-11-23T13:15:42.419Z,16.83
2018-11-23T13:18:14.261Z,16.80
2018-11-23T13:20:45.754Z,14.83
2018-11-23T13:23:18.819Z,17.27
2018-11-23T13:25:50.345Z,15.80
2018-11-23T13:28:25.236Z,11.27
2018-11-23T13:30:56.661Z,15.07
2018-11-23T13:33:28.074Z,15.27
2018-11-23T13:35:59.474Z,14.23
2018-11-23T13:38:31.045Z,10.20
2018-11-23T13:41:02.408Z,9.40
2018-11-23T13:43:33.706Z,5.77
2018-11-23T13:46:05.080Z,7.43
2018-11-23T13:48:36.323Z,6.07
2018-11-23T13:51:07.565Z,10.47
2018-11-23T13:53:38.851Z,6.50
2018-11-23T13:56:10.774Z,14.47
2018-11-23T13:58:42.198Z,28.57
2018-11-23T14:01:13.522Z,14.37
2018-11-23T14:03:47.171Z,25.97
2018-11-23T14:06:18.494Z,11.37
2018-11-23T14:08:49.788Z,5.00
2018-11-23T14:11:21.178Z,4.37
2018-11-23T14:13:52.490Z,6.23
2018-11-23T14:16:23.710Z,7.10
2018-11-23T14:18:55.097Z,4.10
2018-11-23T14:21:26.524Z,5.33
2018-11-23T14:23:57.966Z,6.20
2018-11-23T14:26:29.215Z,5.80
2018-11-23T14:29:00.475Z,11.00
2018-11-23T14:31:31.821Z,11.10
2018-11-23T14:34:03.107Z,16.83
2018-11-23T14:36:34.688Z,14.27
2018-11-23T14:39:08.103Z,15.47
2018-11-23T14:41:39.633Z,31.53
2018-11-23T14:44:11.058Z,25.27
2018-11-23T14:46:42.330Z,24.33
2018-11-23T14:49:13.581Z,30.33
2018-11-23T14:51:44.845Z,45.13
2018-11-23T14:54:16.084Z,37.30
2018-11-23T14:56:47.401Z,28.27
2018-11-23T14:59:22.593Z,43.87
2018-11-23T15:01:55.486Z,39.17
2018-11-23T15:04:27.738Z,46.13
2018-11-23T15:06:59.038Z,54.77
2018-11-23T15:09:30.416Z,66.93
2018-11-23T15:12:01.794Z,45.13
2018-11-23T15:14:33.183Z,46.97
2018-11-23T15:17:04.535Z,45.03
2018-11-23T15:19:35.890Z,39.57
2018-11-23T15:22:07.373Z,44.80
2018-11-23T15:24:38.683Z,42.50
2018-11-23T15:27:10.089Z,76.03
2018-11-23T15:29:41.704Z,57.63
2018-11-23T15:32:13.025Z,67.40
2018-11-23T15:34:44.273Z,59.47
2018-11-23T15:37:15.549Z,50.57
2018-11-23T15:39:46.831Z,56.27
2018-11-23T15:42:18.232Z,101.20
2018-11-23T15:44:53.378Z,102.80
2018-11-23T15:47:24.672Z,91.17
2018-11-23T15:49:56.120Z,99.27
2018-11-23T15:52:27.521Z,93.87
2018-11-23T15:54:58.835Z,103.77
2018-11-23T15:57:30.066Z,71.53
2018-11-23T16:00:02.733Z,81.13
2018-11-23T16:02:36.671Z,77.73
2018-11-23T16:05:08.058Z,57.67
2018-11-23T16:07:39.309Z,62.60
2018-11-23T16:10:18.793Z,56.40
2018-11-23T16:12:51.752Z,62.67
2018-11-23T16:15:23.686Z,53.83
2018-11-23T16:17:55.236Z,56.47
2018-11-23T16:20:29.041Z,76.60
2018-11-23T16:23:02.680Z,47.53
2018-11-23T16:25:34.206Z,45.53
2018-11-23T16:28:06.911Z,46.60
2018-11-23T16:30:40.716Z,45.40
2018-11-23T16:33:14.331Z,41.80
2018-11-23T16:35:45.707Z,56.13
2018-11-23T16:38:19.303Z,47.07
2018-11-23T16:40:52.415Z,43.23
2018-11-23T16:43:23.815Z,68.37
2018-11-23T16:45:55.459Z,59.93
2018-11-23T16:48:26.704Z,54.67
2018-11-23T16:50:58.728Z,114.67
2018-11-23T16:53:29.977Z,150.30
2018-11-23T16:56:01.197Z,212.03
2018-11-23T16:58:33.084Z,187.00
2018-11-23T17:01:04.668Z,147.67
2018-11-23T17:03:35.998Z,122.83
2018-11-23T17:06:07.335Z,172.30
2018-11-23T17:08:39.886Z,119.70
2018-11-23T17:11:09.953Z,89.77
2018-11-23T17:13:41.348Z,117.30
2018-11-23T17:16:13.609Z,107.80
2018-11-23T17:18:44.899Z,62.77
2018-11-23T17:21:16.361Z,62.17
2018-11-23T17:23:47.663Z,89.47
2018-11-23T17:26:19.271Z,73.10
2018-11-23T17:28:50.613Z,81.93
2018-11-23T17:31:21.955Z,88.50
2018-11-23T17:33:53.276Z,91.17
2018-11-23T17:36:27.347Z,107.80
2018-11-23T17:38:58.643Z,79.50
2018-11-23T17:41:30.156Z,84.40
2018-11-23T17:44:01.583Z,132.30
2018-11-23T17:46:32.755Z,140.23
2018-11-23T17:49:03.979Z,109.70
2018-11-23T17:51:35.293Z,218.40
2018-11-23T17:54:12.560Z,59.63
2018-11-23T17:56:43.880Z,57.73
2018-11-23T17:59:15.099Z,71.00
2018-11-23T18:01:46.460Z,92.00
2018-11-23T18:04:17.712Z,84.47
2018-11-23T18:06:50.120Z,96.93
2018-11-23T18:09:21.276Z,87.13
2018-11-23T18:11:52.669Z,95.33
2018-11-23T18:14:23.943Z,87.97
2018-11-23T18:16:55.477Z,80.57
2018-11-23T18:19:27.561Z,86.70
2018-11-23T18:21:58.862Z,88.63
2018-11-23T18:24:30.455Z,153.60
2018-11-23T18:27:01.756Z,148.97
2018-11-23T18:29:33.005Z,97.07
2018-11-23T18:32:04.302Z,85.83
2018-11-23T18:34:35.651Z,69.03
2018-11-23T18:37:07.008Z,65.53
2018-11-23T18:39:38.371Z,83.97
2018-11-23T18:42:10.232Z,68.83
2018-11-23T18:44:41.494Z,83.03
2018-11-23T18:47:15.476Z,89.37
2018-11-23T18:49:46.977Z,145.43
2018-11-23T18:52:18.215Z,125.77
2018-11-23T18:54:50.061Z,132.67
2018-11-23T18:57:21.735Z,119.67
2018-11-23T18:59:52.968Z,96.03
2018-11-23T19:02:24.655Z,98.53
2018-11-23T19:04:57.537Z,102.70
2018-11-23T19:07:28.853Z,101.23
2018-11-23T19:10:00.091Z,111.90
2018-11-23T19:12:34.628Z,82.97
2018-11-23T19:15:11.035Z,96.27
2018-11-23T19:17:42.243Z,108.33
2018-11-23T19:20:21.268Z,102.97
2018-11-23T19:22:54.562Z,176.67
2018-11-23T19:25:26.470Z,128.30
2018-11-23T19:27:57.841Z,111.87
2018-11-23T19:30:29.135Z,115.67
2018-11-23T19:33:00.314Z,105.80
2018-11-23T19:35:31.539Z,115.77
2018-11-23T19:38:02.790Z,79.87
2018-11-23T19:40:33.919Z,90.77
2018-11-23T19:43:05.809Z,113.67
2018-11-23T19:45:37.128Z,103.37
2018-11-23T19:48:08.836Z,99.53
2018-11-23T19:50:40.054Z,72.03
2018-11-23T19:53:11.343Z,81.33
2018-11-23T19:55:42.638Z,88.17
2018-11-23T19:58:13.883Z,85.10
2018-11-23T20:00:45.102Z,90.83
2018-11-23T20:03:18.594Z,96.70
2018-11-23T20:05:50.180Z,93.83
2018-11-23T20:08:21.485Z,95.13
2018-11-23T20:10:52.923Z,100.67
2018-11-23T20:13:24.845Z,95.40
2018-11-23T20:15:56.376Z,87.37
2018-11-23T20:18:28.573Z,89.13
2018-11-23T20:20:59.913Z,88.70
2018-11-23T20:23:31.179Z,85.57
2018-11-23T20:26:02.691Z,73.57
2018-11-23T20:28:35.775Z,73.27
2018-11-23T20:31:10.466Z,100.90
2018-11-23T20:33:44.535Z,84.07
2018-11-23T20:36:16.111Z,75.37
2018-11-23T20:38:48.080Z,61.17
2018-11-23T20:41:20.407Z,69.50
2018-11-23T20:43:56.689Z,55.60
2018-11-23T20:46:28.465Z,53.73
2018-11-23T20:49:01.063Z,52.07
2018-11-23T20:51:35.329Z,70.40
2018-11-23T20:54:07.276Z,113.87
2018-11-23T20:56:48.631Z,90.37
2018-11-23T20:59:43.789Z,91.40
2018-11-23T21:02:21.656Z,53.90
2018-11-23T21:04:59.579Z,60.73
2018-11-23T21:07:36.947Z,52.37
2018-11-23T21:10:20.262Z,51.33
2018-11-23T21:15:52.225Z,33.20
2018-11-23T21:18:29.484Z,29.87
2018-11-23T21:21:06.367Z,36.33
2018-11-23T21:23:43.837Z,28.37
2018-11-23T21:26:20.917Z,30.03
2018-11-23T21:28:57.506Z,26.17
2018-11-23T21:31:37.131Z,31.00
2018-11-23T21:56:00.919Z,22.27
2018-11-23T21:58:37.455Z,20.80
2018-11-23T22:01:13.988Z,22.47
2018-11-23T22:03:50.903Z,20.73
2018-11-23T22:06:28.386Z,29.00
2018-11-23T22:09:07.156Z,32.10
2018-11-23T22:11:43.625Z,35.47
2018-11-23T22:14:19.978Z,33.47
2018-11-23T22:16:56.300Z,32.00
2018-11-23T22:19:33.520Z,30.67
2018-11-23T22:22:09.646Z,29.23
2018-11-23T22:24:46.134Z,31.27
2018-11-23T22:27:22.462Z,28.60
2018-11-23T22:29:59.169Z,30.63
2018-11-23T22:32:35.385Z,29.33
2018-11-23T22:35:12.514Z,49.13
2018-11-23T22:37:48.751Z,44.80
2018-11-23T22:40:25.307Z,36.20
2018-11-23T22:43:01.538Z,34.57
2018-11-23T22:45:37.921Z,32.60
2018-11-23T22:48:14.203Z,30.97
2018-11-23T22:50:50.280Z,25.70
2018-11-23T22:53:27.392Z,17.50
2018-11-23T22:56:03.517Z,15.37
2018-11-23T22:58:39.677Z,21.63
2018-11-23T23:01:16.182Z,23.27
2018-11-23T23:03:52.447Z,21.40
2018-11-23T23:06:28.930Z,18.27
2018-11-23T23:09:08.220Z,18.53
2018-11-23T23:11:44.661Z,13.27
2018-11-23T23:14:20.992Z,15.63
2018-11-23T23:16:57.260Z,14.17
2018-11-23T23:19:33.804Z,17.90
2018-11-23T23:22:09.966Z,13.33
2018-11-23T23:24:46.448Z,13.17
2018-11-23T23:27:22.543Z,13.17
2018-11-23T23:29:58.917Z,20.97
2018-11-23T23:32:35.363Z,13.67
2018-11-23T23:35:12.984Z,11.90
2018-11-23T23:37:49.314Z,9.57
2018-11-23T23:40:25.571Z,7.23
2018-11-23T23:43:01.916Z,9.80
2018-11-23T23:45:37.976Z,10.03
2018-11-23T23:48:14.426Z,11.93
2018-11-23T23:50:50.756Z,9.87
2018-11-23T23:53:27.168Z,10.73
2018-11-23T23:56:03.552Z,10.70
2018-11-23T23:58:39.927Z,21.77
